createdAt,value
2023-04-20T00:02:30.418Z,11.00
2023-04-20T00:07:36.198Z,8.52
2023-04-20T00:12:39.903Z,11.65
2023-04-20T00:17:44.877Z,9.05
2023-04-20T00:22:50.028Z,11.10
2023-04-20T00:27:53.831Z,8.80
2023-04-20T00:32:57.403Z,9.85
2023-04-20T00:38:02.510Z,9.40
2023-04-20T00:43:11.838Z,8.88
2023-04-20T00:48:15.853Z,10.73
2023-04-20T00:53:21.061Z,10.18
2023-04-20T00:58:25.641Z,8.27
2023-04-20T01:03:29.589Z,13.60
2023-04-20T01:08:34.656Z,9.85
2023-04-20T01:13:40.837Z,7.28
2023-04-20T01:18:46.917Z,8.07
2023-04-20T01:23:52.095Z,8.77
2023-04-20T01:28:55.706Z,8.15
2023-04-20T01:33:59.393Z,8.05
2023-04-20T01:39:04.685Z,10.73
2023-04-20T01:44:08.295Z,9.68
2023-04-20T01:49:11.912Z,8.70
2023-04-20T01:54:17.058Z,8.70
2023-04-20T01:59:20.831Z,10.48
2023-04-20T02:04:25.997Z,8.45
2023-04-20T02:09:31.011Z,10.00
2023-04-20T02:14:34.564Z,7.78
2023-04-20T02:19:38.286Z,7.72
2023-04-20T02:24:44.086Z,9.75
2023-04-20T02:29:47.601Z,8.55
2023-04-20T02:34:51.171Z,8.05
2023-04-20T02:39:56.067Z,8.75
2023-04-20T02:45:03.195Z,8.23
2023-04-20T02:50:09.781Z,10.70
2023-04-20T02:55:31.928Z,11.88
2023-04-20T03:00:40.813Z,11.55
2023-04-20T03:05:46.089Z,10.05
2023-04-20T03:10:51.388Z,7.53
2023-04-20T03:15:57.155Z,11.48
2023-04-20T03:21:33.553Z,8.63
2023-04-20T03:26:38.648Z,8.85
2023-04-20T03:31:54.046Z,6.13
2023-04-20T03:36:57.707Z,5.97
2023-04-20T03:42:02.503Z,7.50
2023-04-20T03:47:06.488Z,4.77
2023-04-20T03:52:10.910Z,5.03
2023-04-20T03:57:15.911Z,5.03
2023-04-20T04:02:22.690Z,5.00
2023-04-20T04:07:27.350Z,3.88
2023-04-20T04:12:32.643Z,4.72
2023-04-20T04:17:36.700Z,6.05
2023-04-20T04:22:41.936Z,5.53
2023-04-20T04:28:22.187Z,7.53
2023-04-20T04:33:40.215Z,3.55
2023-04-20T04:38:45.788Z,5.43
2023-04-20T04:43:51.332Z,6.83
2023-04-20T04:49:04.659Z,8.40
2023-04-20T04:54:08.199Z,6.13
2023-04-20T04:59:13.279Z,7.68
2023-04-20T05:04:16.970Z,8.65
2023-04-20T05:09:21.023Z,6.68
2023-04-20T05:14:26.029Z,6.70
2023-04-20T05:19:29.736Z,7.90
2023-04-20T05:24:33.358Z,7.95
2023-04-20T05:29:38.706Z,10.40
2023-04-20T05:34:42.325Z,8.75
2023-04-20T05:39:46.044Z,10.20
2023-04-20T05:44:51.123Z,9.13
2023-04-20T05:49:54.583Z,10.57
2023-04-20T05:54:59.890Z,8.07
2023-04-20T06:00:05.949Z,10.77
2023-04-20T06:05:16.548Z,13.10
2023-04-20T06:10:20.394Z,10.13
2023-04-20T06:15:25.042Z,11.93
2023-04-20T06:20:28.712Z,11.77
2023-04-20T06:25:32.548Z,11.80
2023-04-20T06:30:38.482Z,11.57
2023-04-20T06:35:42.161Z,11.15
2023-04-20T06:40:45.777Z,11.57
2023-04-20T06:45:50.738Z,13.15
2023-04-20T06:50:54.428Z,9.55
2023-04-20T06:55:58.779Z,11.05
2023-04-20T07:01:03.846Z,10.52
2023-04-20T07:06:11.404Z,11.43
2023-04-20T07:11:15.246Z,10.55
2023-04-20T07:16:20.764Z,10.98
2023-04-20T07:21:24.865Z,10.50
2023-04-20T07:26:28.853Z,12.48
2023-04-20T07:31:35.307Z,20.45
2023-04-20T07:36:39.244Z,10.52
2023-04-20T07:41:42.611Z,15.13
2023-04-20T07:46:47.401Z,13.15
2023-04-20T07:51:50.786Z,13.80
2023-04-20T07:56:54.817Z,11.48
2023-04-20T08:02:02.619Z,11.27
2023-04-20T08:07:06.210Z,11.32
2023-04-20T08:12:09.680Z,13.73
2023-04-20T08:17:14.305Z,10.68
2023-04-20T08:22:17.576Z,12.50
2023-04-20T08:27:21.095Z,9.85
2023-04-20T08:32:26.794Z,9.57
2023-04-20T08:37:32.667Z,10.88
2023-04-20T08:42:37.650Z,10.48
2023-04-20T08:47:44.705Z,13.25
2023-04-20T08:52:48.535Z,11.20
2023-04-20T08:57:52.186Z,13.27
2023-04-20T09:02:59.080Z,17.60
2023-04-20T09:08:05.223Z,14.13
2023-04-20T09:13:08.887Z,12.88
2023-04-20T09:18:15.480Z,17.02
2023-04-20T09:23:20.421Z,11.50
2023-04-20T09:28:24.181Z,18.03
2023-04-20T09:33:30.914Z,11.63
2023-04-20T09:38:34.158Z,13.68
2023-04-20T09:43:37.538Z,11.65
2023-04-20T09:48:42.205Z,11.70
2023-04-20T09:53:47.598Z,11.00
2023-04-20T10:03:58.306Z,10.35
2023-04-20T10:09:04.154Z,11.15
2023-04-20T10:14:17.958Z,11.00
2023-04-20T10:19:22.736Z,9.95
2023-04-20T10:24:30.824Z,8.83
2023-04-20T10:29:36.498Z,9.85
2023-04-20T10:34:41.547Z,11.68
2023-04-20T10:39:46.699Z,9.85
2023-04-20T10:44:50.313Z,8.47
2023-04-20T10:49:54.915Z,10.68
2023-04-20T10:54:58.177Z,8.57
2023-04-20T11:00:01.608Z,11.10
2023-04-20T11:05:13.907Z,11.55
2023-04-20T11:10:17.365Z,9.80
2023-04-20T11:15:20.907Z,11.27
2023-04-20T11:20:25.532Z,9.43
2023-04-20T11:25:29.073Z,12.47
2023-04-20T11:30:39.921Z,11.23
2023-04-20T11:35:44.914Z,11.85
2023-04-20T11:40:48.217Z,11.10
2023-04-20T11:45:52.001Z,15.57
2023-04-20T11:50:56.583Z,16.25
2023-04-20T11:56:00.343Z,13.00
2023-04-20T12:01:05.556Z,13.95
2023-04-20T12:06:10.670Z,12.32
2023-04-20T12:11:13.961Z,10.52
2023-04-20T12:16:17.934Z,13.10
2023-04-20T12:21:23.046Z,13.13
2023-04-20T12:26:37.457Z,15.63
2023-04-20T12:31:42.326Z,12.82
2023-04-20T12:36:47.173Z,13.00
2023-04-20T12:41:50.369Z,20.17
2023-04-20T12:46:53.939Z,15.77
2023-04-20T12:51:58.568Z,15.30
2023-04-20T12:57:02.601Z,20.75
2023-04-20T13:02:06.056Z,19.73
2023-04-20T13:07:10.801Z,17.60
2023-04-20T13:12:14.702Z,18.70
2023-04-20T13:17:17.919Z,19.30
2023-04-20T13:22:22.741Z,16.75
2023-04-20T13:27:26.020Z,18.13
2023-04-20T13:32:29.364Z,19.50
2023-04-20T13:37:34.145Z,20.33
2023-04-20T13:42:37.564Z,16.60
2023-04-20T13:47:41.195Z,19.38
2023-04-20T13:52:45.955Z,18.75
2023-04-20T13:57:49.680Z,22.17
2023-04-20T14:02:53.218Z,22.10
2023-04-20T14:08:01.516Z,22.23
2023-04-20T14:13:05.241Z,29.17
2023-04-20T14:18:08.990Z,20.63
2023-04-20T14:23:14.858Z,22.88
2023-04-20T14:28:18.358Z,24.30
2023-04-20T14:33:22.373Z,22.65
2023-04-20T14:38:27.234Z,21.17
2023-04-20T14:43:32.311Z,24.40
2023-04-20T14:48:38.113Z,25.08
2023-04-20T14:53:42.841Z,25.38
2023-04-20T14:58:47.971Z,24.60
2023-04-20T15:03:51.543Z,24.07
2023-04-20T15:08:57.568Z,22.42
2023-04-20T15:14:01.243Z,24.10
2023-04-20T15:19:04.456Z,26.88
2023-04-20T15:24:09.797Z,22.90
2023-04-20T15:29:13.139Z,25.30
2023-04-20T15:34:17.697Z,19.80
2023-04-20T15:39:23.258Z,26.93
2023-04-20T15:44:27.219Z,24.15
2023-04-20T15:49:30.565Z,21.40
2023-04-20T15:54:35.621Z,23.60
2023-04-20T15:59:39.302Z,21.70
2023-04-20T16:04:43.187Z,23.55
2023-04-20T16:09:48.371Z,25.50
2023-04-20T16:14:53.816Z,21.92
2023-04-20T16:19:57.841Z,25.27
2023-04-20T16:25:03.003Z,22.98
2023-04-20T16:30:07.718Z,23.30
2023-04-20T16:35:11.901Z,22.03
2023-04-20T16:40:16.577Z,20.67
2023-04-20T16:45:19.894Z,25.00
2023-04-20T16:50:23.153Z,21.92
2023-04-20T16:55:27.780Z,23.00
2023-04-20T17:00:32.319Z,23.37
2023-04-20T17:05:41.668Z,21.17
2023-04-20T17:10:47.103Z,23.65
2023-04-20T17:15:50.622Z,24.88
2023-04-20T17:20:54.711Z,27.50
2023-04-20T17:25:59.347Z,23.27
2023-04-20T17:31:03.416Z,26.23
2023-04-20T17:36:07.668Z,28.27
2023-04-20T17:41:12.647Z,23.15
2023-04-20T17:46:16.410Z,25.98
2023-04-20T17:51:19.708Z,24.60
2023-04-20T17:56:24.689Z,27.63
2023-04-20T18:01:28.463Z,26.85
2023-04-20T18:06:34.105Z,26.08
2023-04-20T18:16:42.520Z,29.17
2023-04-20T18:21:46.594Z,33.50
2023-04-20T18:26:51.195Z,37.47
2023-04-20T18:31:56.375Z,32.72
2023-04-20T18:37:00.183Z,29.50
2023-04-20T18:42:04.927Z,33.60
2023-04-20T18:47:08.227Z,35.60
2023-04-20T18:52:11.584Z,33.47
2023-04-20T18:57:16.353Z,34.90
2023-04-20T19:02:20.305Z,33.73
2023-04-20T19:07:23.626Z,37.28
2023-04-20T19:12:28.749Z,31.77
2023-04-20T19:17:32.144Z,33.10
2023-04-20T19:22:35.685Z,34.88
2023-04-20T19:27:40.509Z,34.05
2023-04-20T19:32:43.827Z,34.10
2023-04-20T19:37:47.347Z,32.95
2023-04-20T19:42:52.020Z,25.27
2023-04-20T19:47:55.260Z,27.57
2023-04-20T19:52:58.747Z,32.80
2023-04-20T19:58:09.109Z,32.67
2023-04-20T20:03:15.555Z,28.75
2023-04-20T20:08:19.608Z,30.45
2023-04-20T20:13:24.668Z,26.02
2023-04-20T20:18:28.247Z,24.60
2023-04-20T20:23:31.844Z,27.02
2023-04-20T20:28:37.016Z,28.45
2023-04-20T20:33:42.809Z,26.15
2023-04-20T20:38:47.376Z,27.77
2023-04-20T20:43:53.295Z,36.17
2023-04-20T20:48:57.904Z,27.15
2023-04-20T20:59:07.012Z,24.35
2023-04-20T21:04:10.494Z,27.85
2023-04-20T21:09:15.458Z,29.48
2023-04-20T21:14:20.696Z,29.00
2023-04-20T21:19:24.308Z,22.93
2023-04-20T21:24:27.993Z,20.63
2023-04-20T21:29:33.033Z,26.70
2023-04-20T21:34:36.228Z,22.95
2023-04-20T21:39:39.495Z,23.52
2023-04-20T21:44:44.122Z,26.52
2023-04-20T21:49:47.509Z,22.38
2023-04-20T21:54:50.685Z,24.38
2023-04-20T21:59:55.701Z,22.75
2023-04-20T22:04:59.282Z,31.10
2023-04-20T22:10:03.196Z,31.90
2023-04-20T22:15:10.311Z,26.08
2023-04-20T22:20:15.274Z,26.92
2023-04-20T22:25:18.923Z,27.73
2023-04-20T22:30:23.733Z,27.48
2023-04-20T22:35:27.107Z,25.37
2023-04-20T22:40:30.500Z,27.92
2023-04-20T22:45:35.085Z,26.45
2023-04-20T22:50:38.415Z,28.15
2023-04-20T22:55:41.955Z,26.20
2023-04-20T23:00:47.125Z,29.40
2023-04-20T23:05:50.795Z,31.60
2023-04-20T23:10:54.840Z,31.10
2023-04-20T23:15:59.761Z,30.85
2023-04-20T23:21:03.454Z,35.88
2023-04-20T23:26:06.998Z,36.28
2023-04-20T23:31:11.927Z,40.10
2023-04-20T23:36:15.701Z,36.13
2023-04-20T23:41:19.328Z,32.45
2023-04-20T23:46:25.033Z,42.40
2023-04-20T23:56:32.093Z,34.88
